Terminal Aerodrome Forecast
Issued by NWS Binghamton, NY

Home | Current Version | Previous Version | Text Only | Print | Product List | Glossary On
Versions: 1 2 3 4 5 6 7 8 9 10 11 12 13 14 15 16 17 18 19
000
FTUS41 KBGM 222300
TAFAVP
TAF
KAVP 222327Z 2300/2324 22003KT P6SM FEW050
      TEMPO 2308/2312 3SM BR SCT020
     FM231500 23010KT P6SM BKN050 PROB30 2320/2323 4SM TSRA OVC035CB
     FM232300 28010KT 5SM HZ BKN045=

USA.gov is the U.S. government's official web portal to all federal, state and local government web resources and services.